Arnold, Missouri
Current Conditions -  °F | °C
As of 4:53 PM on Tuesday 27 Jan 2015 (Local Time) from KCPS Reporting Station
Overcast Overcast  
Wind Chill:   Ceiling: 3500
Heat Index:   Visibility: 10mi
Dew Point: -1°   Wind: 8mph
Humidity: 60%   Direction: 10°N
Pressure: 30.2"   Gusts: NA
Location:  38.42°N, 90.37°W
Report Text: KCPS 272253Z 01007KT 10SM OVC035 07/M01 A3020 RMK AO2 SLP228 T00671006
Loading
Personal Weather Stations






























Interactive Weather Map New forecast layout! Learn more

10-Day Weather Forecast

Advertisements
Track Severe Weather on mobile